Flight Track Log - Related Links

Times and Time Zones

All times are in EST time to prevent confusion due to time zone crossing. See the CSZ9597 flight status page for this flight to view local times or setup timezone preferences in your user account.

Time Position Orientation Groundspeed Altitude Reporting Facility
EST Latitude Longitude Course Direction KTS MPH feet Rate Location/Type
Tue 11:39:00 PM 23.9779 114.2123 55° Northeast  Level Estimated
Tue 11:40:00 PM 24.0507 114.3270 55° Northeast  Level Estimated
Tue 11:41:00 PM 24.1234 114.4419 55° Northeast  Level Estimated
Tue 11:42:00 PM 24.1961 114.5570 55° Northeast  Level Estimated
Tue 11:43:00 PM 24.2686 114.6721 55° Northeast  Level Estimated
Tue 11:44:00 PM 24.3411 114.7874 55° Northeast  Level Estimated
Tue 11:45:00 PM 24.4135 114.9028 55° Northeast  Level Estimated
Tue 11:46:00 PM 24.4858 115.0184 55° Northeast  Level Estimated
Tue 11:47:00 PM 24.5579 115.1341 56° Northeast  Level Estimated
Tue 11:48:00 PM 24.6301 115.2499 56° Northeast  Level Estimated
Tue 11:49:00 PM 24.7021 115.3659 56° Northeast  Level Estimated
Tue 11:50:00 PM 24.7740 115.4819 56° Northeast  Level Estimated
Tue 11:51:00 PM 24.8458 115.5982 56° Northeast  Level Estimated
Tue 11:52:00 PM 24.9176 115.7145 56° Northeast  Level Estimated
Tue 11:53:00 PM 24.9893 115.8310 56° Northeast  Level Estimated
Tue 11:54:00 PM 25.0608 115.9476 56° Northeast  Level Estimated
Tue 11:55:00 PM 25.1323 116.0644 56° Northeast  Level Estimated
Tue 11:56:00 PM 25.2037 116.1813 56° Northeast  Level Estimated
Tue 11:57:00 PM 25.2750 116.2983 56° Northeast  Level Estimated
Tue 11:58:00 PM 25.3462 116.4155 56° Northeast  Level Estimated
Tue 11:59:00 PM 25.4173 116.5328 56° Northeast  Level Estimated
Wed 12:00:00 AM 25.4883 116.6503 56° Northeast  Level Estimated
Wed 12:01:00 AM 25.5592 116.7679 56° Northeast  Level Estimated
Wed 12:02:00 AM 25.6301 116.8856 56° Northeast  Level Estimated
Wed 12:03:00 AM 25.7008 117.0035 56° Northeast  Level Estimated
Wed 12:04:00 AM 25.7715 117.1215 56° Northeast  Level Estimated
Wed 12:05:00 AM 25.8420 117.2396 56° Northeast  Level Estimated
Wed 12:06:00 AM 25.9125 117.3579 56° Northeast  Level Estimated
Wed 12:07:00 AM 25.9828 117.4764 57° Northeast  Level Estimated
Wed 12:08:00 AM 26.0531 117.5949 57° Northeast  Level Estimated
Wed 12:09:00 AM 26.1232 117.7137 57° Northeast  Level Estimated
Wed 12:10:00 AM 26.1933 117.8325 57° Northeast  Level Estimated
Wed 12:11:00 AM 26.2633 117.9515 57° Northeast  Level Estimated
Wed 12:12:00 AM 26.3331 118.0707 57° Northeast  Level Estimated
Wed 12:13:00 AM 26.4029 118.1899 57° Northeast  Level Estimated
Wed 12:14:00 AM 26.4726 118.3094 57° Northeast  Level Estimated
Wed 12:15:00 AM 26.5421 118.4290 57° Northeast  Level Estimated
Wed 12:16:00 AM 26.6116 118.5487 57° Northeast  Level Estimated
Wed 12:17:00 AM 26.6810 118.6685 57° Northeast  Level Estimated
Wed 12:18:00 AM 26.7502 118.7886 57° Northeast  Level Estimated
Wed 12:19:00 AM 26.8194 118.9087 57° Northeast  Level Estimated
Wed 12:20:00 AM 26.8885 119.0290 57° Northeast  Level Estimated
Wed 12:21:00 AM 26.9575 119.1495 57° Northeast  Level Estimated
Wed 12:22:00 AM 27.0263 119.2701 57° Northeast  Level Estimated
Wed 12:23:00 AM 27.0951 119.3908 57° Northeast  Level Estimated
Wed 12:24:00 AM 27.1637 119.5117 57° Northeast  Level Estimated
Wed 12:25:00 AM 27.2323 119.6328 57° Northeast  Level Estimated
Wed 12:26:00 AM 27.3007 119.7540 58° Northeast  Level Estimated
Wed 12:27:00 AM 27.3691 119.8753 58° Northeast  Level Estimated
Wed 12:28:00 AM 27.4373 119.9968 58° Northeast  Level Estimated
Wed 12:29:00 AM 27.5054 120.1185 58° Northeast  Level Estimated
Wed 12:30:00 AM 27.5735 120.2403 58° Northeast  Level Estimated
Wed 12:31:00 AM 27.6414 120.3622 58° Northeast  Level Estimated
Wed 12:32:00 AM 27.7092 120.4843 58° Northeast  Level Estimated
Wed 12:33:00 AM 27.7769 120.6066 58° Northeast  Level Estimated
Wed 12:34:00 AM 27.8445 120.7290 58° Northeast  Level Estimated
Wed 12:35:00 AM 27.9120 120.8515 58° Northeast  Level Estimated
Wed 12:36:00 AM 27.9122 120.8519 58° Northeast  Level Estimated
Wed 12:37:00 AM 27.9122 120.8519 60° Northeast  Level Estimated
Wed 12:38:00 AM 27.9122 120.8519 60° Northeast  Level Estimated
Wed 12:39:00 AM 27.9122 120.8519 60° Northeast  Level Estimated
Wed 12:40:00 AM 27.9122 120.8519 60° Northeast  Level Estimated
Wed 12:41:00 AM 27.9122 120.8519 60° Northeast  Level Estimated
Wed 12:42:00 AM 27.9122 120.8519 60° Northeast  Level Estimated
Wed 12:43:00 AM 27.9122 120.8519 60° Northeast  Level Estimated
Wed 12:44:00 AM 27.9122 120.8519 60° Northeast  Level Estimated
Wed 12:45:00 AM 27.9122 120.8519 60° Northeast  Level Estimated
Wed 12:46:00 AM 27.9122 120.8519 60° Northeast  Level Estimated
Wed 12:47:00 AM 27.9122 120.8519 60° Northeast  Level Estimated
Wed 12:48:00 AM 27.9122 120.8519 60° Northeast  Level Estimated
Wed 12:49:00 AM 27.9122 120.8519 60° Northeast  Level Estimated
Wed 12:50:00 AM 27.9122 120.8519 60° Northeast  Level Estimated
Wed 12:51:00 AM 27.9122 120.8519 60° Northeast  Level Estimated

Login

Don't have an account? Register now (free) for customized features, flight alerts, and more!